createdAt,value
2018-01-31T01:52:52.468Z,5.76
2018-01-31T01:55:21.348Z,5.76
2018-01-31T01:57:50.259Z,5.75
2018-01-31T02:00:19.195Z,5.68
2018-01-31T02:02:48.203Z,5.65
2018-01-31T02:05:17.137Z,5.56
2018-01-31T02:07:45.932Z,5.53
2018-01-31T02:10:14.888Z,5.55
2018-01-31T02:12:43.758Z,5.49
2018-01-31T02:15:12.703Z,5.40
2018-01-31T02:17:41.592Z,5.38
2018-01-31T02:20:10.406Z,5.35
2018-01-31T02:22:39.453Z,5.40
2018-01-31T02:25:08.362Z,5.48
2018-01-31T02:27:37.184Z,5.51
2018-01-31T02:30:06.083Z,5.52
2018-01-31T02:32:35.053Z,5.56
2018-01-31T02:35:03.897Z,5.62
2018-01-31T02:37:32.902Z,5.61
2018-01-31T02:40:01.913Z,5.58
2018-01-31T02:42:30.796Z,5.58
2018-01-31T02:44:59.578Z,5.64
2018-01-31T02:47:32.520Z,5.61
2018-01-31T02:50:01.322Z,5.54
2018-01-31T02:52:30.161Z,5.53
2018-01-31T02:55:00.111Z,5.53
2018-01-31T02:57:29.144Z,5.40
2018-01-31T02:59:58.036Z,5.34
2018-01-31T03:02:27.798Z,5.29
2018-01-31T03:04:56.679Z,5.35
2018-01-31T03:07:25.713Z,5.36
2018-01-31T03:09:54.628Z,5.29
2018-01-31T03:12:23.421Z,5.27
2018-01-31T03:14:52.270Z,5.26
2018-01-31T03:17:22.918Z,5.09
2018-01-31T03:19:51.789Z,5.13
2018-01-31T03:22:20.739Z,5.23
2018-01-31T03:24:49.579Z,5.39
2018-01-31T03:27:18.512Z,5.46
2018-01-31T03:29:48.380Z,5.54
2018-01-31T03:32:17.300Z,5.61
2018-01-31T03:34:46.194Z,5.65
2018-01-31T03:37:15.056Z,5.74
2018-01-31T03:39:44.724Z,5.81
2018-01-31T03:42:13.569Z,5.83
2018-01-31T03:44:43.348Z,5.86
2018-01-31T03:47:12.173Z,5.88
2018-01-31T03:49:51.778Z,5.90
2018-01-31T03:52:20.744Z,5.88
2018-01-31T03:54:49.554Z,5.84
2018-01-31T03:57:18.422Z,5.80
2018-01-31T03:59:47.297Z,5.84
2018-01-31T04:02:16.186Z,5.84
2018-01-31T04:04:45.044Z,5.84
2018-01-31T04:07:13.986Z,5.88
2018-01-31T04:09:42.834Z,5.92
2018-01-31T04:12:12.373Z,5.97
2018-01-31T04:14:42.161Z,6.03
2018-01-31T04:17:10.968Z,6.14
2018-01-31T04:19:40.215Z,5.94
2018-01-31T04:28:56.891Z,5.51
2018-01-31T04:31:25.731Z,5.45
2018-01-31T04:33:54.541Z,5.46
2018-01-31T04:36:23.454Z,5.44
2018-01-31T04:38:52.240Z,5.48
2018-01-31T04:41:21.046Z,5.46
2018-01-31T04:43:53.613Z,5.48
2018-01-31T04:46:22.489Z,5.47
2018-01-31T04:48:51.291Z,5.51
2018-01-31T04:51:20.261Z,5.45
2018-01-31T04:53:49.140Z,5.36
2018-01-31T04:56:17.985Z,5.24
2018-01-31T04:58:51.270Z,5.26
2018-01-31T05:01:20.100Z,5.14
2018-01-31T05:03:49.068Z,5.21
2018-01-31T05:06:18.765Z,5.15
2018-01-31T05:08:47.598Z,5.14
2018-01-31T05:11:16.487Z,5.18
2018-01-31T05:13:45.305Z,5.23
2018-01-31T05:16:14.104Z,5.19
2018-01-31T05:18:42.919Z,5.20
2018-01-31T05:21:12.968Z,5.25
2018-01-31T05:23:41.786Z,5.21
2018-01-31T05:26:10.752Z,5.19
2018-01-31T05:28:40.014Z,5.11
2018-01-31T05:31:09.908Z,5.07
2018-01-31T05:33:38.714Z,5.25
2018-01-31T05:36:09.197Z,5.38
2018-01-31T05:38:38.042Z,5.41
2018-01-31T05:41:06.903Z,5.58
2018-01-31T05:43:37.461Z,5.57
2018-01-31T05:46:06.379Z,5.63
2018-01-31T05:48:36.458Z,5.72
2018-01-31T05:51:07.046Z,5.90
2018-01-31T05:53:36.092Z,6.06
2018-01-31T05:56:04.992Z,6.20
2018-01-31T05:58:33.920Z,6.20
2018-01-31T06:01:02.870Z,6.33
2018-01-31T06:03:31.685Z,6.29
2018-01-31T06:06:04.247Z,6.41
2018-01-31T06:08:33.130Z,6.57
2018-01-31T06:11:02.091Z,6.66
2018-01-31T06:13:31.113Z,6.76
2018-01-31T06:16:00.065Z,6.82
2018-01-31T06:18:28.875Z,6.88
2018-01-31T06:20:57.837Z,6.90
2018-01-31T06:23:26.693Z,6.93
2018-01-31T06:25:56.744Z,6.91
2018-01-31T06:28:26.131Z,6.85
2018-01-31T06:30:55.138Z,6.91
2018-01-31T06:33:24.339Z,6.93
2018-01-31T06:35:54.254Z,6.83
2018-01-31T06:38:23.389Z,6.81
2018-01-31T06:40:52.635Z,6.88
2018-01-31T06:43:22.611Z,6.91
2018-01-31T06:45:51.968Z,7.01
2018-01-31T06:48:22.599Z,7.05
2018-01-31T06:50:51.698Z,7.07
2018-01-31T06:53:21.443Z,7.08
2018-01-31T06:55:50.435Z,7.15
2018-01-31T06:58:19.634Z,7.17
2018-01-31T07:00:48.594Z,7.30
2018-01-31T07:03:18.449Z,7.35
2018-01-31T07:05:48.296Z,7.39
2018-01-31T07:08:17.966Z,7.42
2018-01-31T07:10:47.103Z,7.51
2018-01-31T07:13:18.072Z,7.55
2018-01-31T07:15:48.212Z,7.52
2018-01-31T07:18:17.037Z,7.60
2018-01-31T07:20:46.671Z,7.64
2018-01-31T07:23:15.492Z,7.62
2018-01-31T07:25:44.308Z,7.59
2018-01-31T07:28:13.157Z,7.69
2018-01-31T07:30:42.067Z,7.73
2018-01-31T07:33:11.770Z,7.57
2018-01-31T07:35:40.765Z,7.61
2018-01-31T07:38:09.871Z,7.65
2018-01-31T07:40:39.156Z,7.69
2018-01-31T07:43:11.110Z,7.72
2018-01-31T07:45:41.121Z,7.82
2018-01-31T07:48:10.709Z,7.85
2018-01-31T07:50:42.340Z,7.89
2018-01-31T07:53:12.056Z,7.91
2018-01-31T07:55:41.221Z,8.01
2018-01-31T07:58:11.102Z,8.12
2018-01-31T08:00:42.485Z,8.18
2018-01-31T08:03:12.670Z,8.19
2018-01-31T08:05:41.602Z,8.28
2018-01-31T08:08:10.657Z,8.36
2018-01-31T08:10:43.378Z,8.49
2018-01-31T08:13:13.188Z,8.61
2018-01-31T08:15:44.078Z,8.62
2018-01-31T08:18:14.041Z,8.74
2018-01-31T08:20:43.009Z,8.80
2018-01-31T08:23:12.133Z,8.66
2018-01-31T08:25:49.008Z,8.75
2018-01-31T08:28:18.005Z,8.74
2018-01-31T08:30:47.917Z,8.76
2018-01-31T08:33:17.844Z,8.84
2018-01-31T08:35:46.725Z,8.94
2018-01-31T08:38:16.693Z,9.01
2018-01-31T08:40:50.446Z,9.04
2018-01-31T08:43:21.137Z,9.05
2018-01-31T08:45:50.373Z,9.09
2018-01-31T08:48:19.333Z,9.20
2018-01-31T08:50:49.134Z,9.20
2018-01-31T08:53:21.351Z,9.17
2018-01-31T08:55:51.338Z,9.22
2018-01-31T08:58:20.571Z,9.35
2018-01-31T09:00:50.282Z,9.47
2018-01-31T09:03:19.176Z,9.47
2018-01-31T09:05:49.315Z,9.46
2018-01-31T09:08:18.213Z,9.53
2018-01-31T09:10:48.000Z,9.59
2018-01-31T09:13:18.162Z,9.65
2018-01-31T09:15:47.161Z,9.73
2018-01-31T09:18:16.951Z,9.73
2018-01-31T09:20:46.061Z,9.80
2018-01-31T09:23:16.182Z,9.83
2018-01-31T09:25:45.585Z,9.90
2018-01-31T09:28:15.152Z,10.00
2018-01-31T09:30:47.936Z,10.12
2018-01-31T09:33:16.931Z,10.01
2018-01-31T09:35:47.871Z,10.13
2018-01-31T09:38:16.907Z,10.23
2018-01-31T09:40:47.556Z,10.24
2018-01-31T09:43:16.589Z,10.24
2018-01-31T09:45:46.616Z,10.19
2018-01-31T09:48:15.675Z,10.22
2018-01-31T09:50:44.791Z,10.32
2018-01-31T09:53:13.896Z,10.41
2018-01-31T09:55:43.859Z,10.48
2018-01-31T09:58:13.731Z,10.52
2018-01-31T10:00:42.870Z,10.57
2018-01-31T10:03:12.778Z,10.65
2018-01-31T10:05:41.870Z,10.64
2018-01-31T10:08:12.970Z,10.77
2018-01-31T10:10:42.010Z,10.82
2018-01-31T10:13:11.072Z,10.81
2018-01-31T10:15:40.169Z,10.88
2018-01-31T10:18:12.033Z,10.96
2018-01-31T10:20:42.049Z,10.92
2018-01-31T10:23:11.143Z,10.92
2018-01-31T10:25:40.139Z,10.83
2018-01-31T10:28:09.312Z,10.79
2018-01-31T10:30:38.270Z,10.83
2018-01-31T10:33:07.451Z,10.85
2018-01-31T10:35:37.374Z,10.88
2018-01-31T10:38:07.266Z,10.99
2018-01-31T10:40:36.363Z,10.88
2018-01-31T10:43:06.451Z,10.98
2018-01-31T10:45:36.328Z,10.99
2018-01-31T10:48:06.040Z,11.08
2018-01-31T10:50:35.961Z,11.17
2018-01-31T10:53:05.036Z,11.25
2018-01-31T10:58:06.591Z,11.29
2018-01-31T11:00:36.710Z,11.34
2018-01-31T11:03:06.572Z,11.43
2018-01-31T11:05:35.411Z,11.37
2018-01-31T11:08:04.848Z,11.41
2018-01-31T11:10:34.795Z,11.43
2018-01-31T11:13:03.931Z,11.45
2018-01-31T11:15:32.821Z,11.53
2018-01-31T11:18:02.840Z,11.42
2018-01-31T11:20:32.860Z,11.51
2018-01-31T11:23:03.866Z,11.67
2018-01-31T11:25:32.858Z,11.61
2018-01-31T11:28:01.789Z,11.65
2018-01-31T11:30:32.663Z,11.62
2018-01-31T11:33:01.688Z,11.64
2018-01-31T11:35:32.455Z,11.72
2018-01-31T11:38:01.847Z,11.79
2018-01-31T11:40:30.957Z,11.78
2018-01-31T11:43:01.794Z,11.77
2018-01-31T11:45:31.094Z,11.83
2018-01-31T11:48:00.088Z,11.82
2018-01-31T11:50:29.079Z,11.85
2018-01-31T11:52:59.908Z,11.89
2018-01-31T11:55:29.046Z,11.78
2018-01-31T11:57:59.142Z,11.84
2018-01-31T12:00:29.150Z,11.79
2018-01-31T12:02:58.032Z,11.73
2018-01-31T12:05:27.139Z,11.65
2018-01-31T12:07:57.121Z,11.65
2018-01-31T12:10:37.826Z,11.66
2018-01-31T12:13:19.430Z,11.65
2018-01-31T12:16:00.287Z,11.62
2018-01-31T12:18:40.942Z,11.68
2018-01-31T12:21:22.698Z,11.71
2018-01-31T12:24:05.472Z,11.66
2018-01-31T12:26:46.272Z,11.68
2018-01-31T12:29:28.010Z,11.71
2018-01-31T12:32:09.512Z,11.74
2018-01-31T12:34:51.316Z,11.64
2018-01-31T12:37:32.186Z,11.70
2018-01-31T12:40:00.500Z,11.72
2018-01-31T12:42:28.734Z,11.79
2018-01-31T12:44:56.909Z,11.68
2018-01-31T12:47:38.629Z,11.65
2018-01-31T12:50:19.377Z,11.48
2018-01-31T12:53:02.125Z,11.35
2018-01-31T12:58:51.684Z,10.97
2018-01-31T13:01:45.361Z,10.84
2018-01-31T13:04:32.348Z,10.77
2018-01-31T13:07:13.014Z,10.79
2018-01-31T13:10:03.338Z,10.75
2018-01-31T13:12:43.693Z,10.84
2018-01-31T13:15:24.053Z,10.67
2018-01-31T13:18:13.429Z,10.73
2018-01-31T13:20:56.076Z,10.68
2018-01-31T13:23:24.803Z,10.66
2018-01-31T13:40:25.156Z,10.49
2018-01-31T13:43:05.390Z,10.55
2018-01-31T13:45:47.824Z,10.55
2018-01-31T13:48:42.936Z,10.40
2018-01-31T13:54:26.350Z,9.68
2018-01-31T13:57:06.911Z,9.48
2018-01-31T13:59:47.319Z,9.47
2018-01-31T14:02:27.879Z,9.47
2018-01-31T14:05:17.864Z,9.47
2018-01-31T14:07:59.378Z,9.45
2018-01-31T14:10:54.666Z,9.38
2018-01-31T14:13:36.000Z,9.23
2018-01-31T14:16:16.718Z,9.17
2018-01-31T14:18:57.284Z,9.07
2018-01-31T14:21:38.736Z,9.12
2018-01-31T14:24:33.650Z,9.11
2018-01-31T14:27:14.238Z,9.04
2018-01-31T14:29:55.132Z,9.02
2018-01-31T14:32:35.450Z,9.00
2018-01-31T14:35:16.855Z,8.88
2018-01-31T14:37:45.042Z,8.76
2018-01-31T14:40:13.208Z,8.71
2018-01-31T14:42:46.600Z,8.66
2018-01-31T14:45:14.570Z,8.62
2018-01-31T14:47:42.544Z,8.55
2018-01-31T14:50:10.788Z,8.53
2018-01-31T14:52:38.903Z,8.49
2018-01-31T14:55:06.999Z,8.43
2018-01-31T14:57:35.427Z,8.28
2018-01-31T15:00:03.931Z,8.20
2018-01-31T15:02:32.926Z,8.11
2018-01-31T15:05:01.761Z,8.03
2018-01-31T15:07:29.888Z,7.92
2018-01-31T15:09:57.839Z,7.82
2018-01-31T15:12:26.386Z,7.73
2018-01-31T15:14:54.887Z,7.70
2018-01-31T15:17:23.205Z,7.64
2018-01-31T15:19:51.406Z,7.57
2018-01-31T15:22:21.087Z,7.49
2018-01-31T15:24:49.155Z,7.28
2018-01-31T15:27:17.431Z,7.25
2018-01-31T15:29:46.666Z,7.13
2018-01-31T15:32:14.909Z,7.08
2018-01-31T15:34:44.491Z,7.07
2018-01-31T15:37:13.547Z,7.01
2018-01-31T15:39:42.704Z,6.97
2018-01-31T15:42:14.475Z,6.88
2018-01-31T15:44:42.649Z,6.87
2018-01-31T15:47:10.604Z,6.91
2018-01-31T15:49:41.622Z,6.81
2018-01-31T15:52:09.620Z,6.73
2018-01-31T15:54:37.786Z,6.68
2018-01-31T15:57:06.769Z,6.69
2018-01-31T15:59:34.757Z,6.71
2018-01-31T16:02:02.817Z,6.73
2018-01-31T16:04:32.543Z,6.71
2018-01-31T16:07:00.819Z,6.69
2018-01-31T16:09:28.993Z,6.61
2018-01-31T16:11:57.873Z,6.60
2018-01-31T16:14:26.885Z,6.59
2018-01-31T16:16:57.460Z,6.60
2018-01-31T16:19:38.897Z,6.60
2018-01-31T16:22:08.618Z,6.61
2018-01-31T16:24:37.417Z,6.63
2018-01-31T16:27:18.267Z,6.64
2018-01-31T16:30:01.655Z,6.60
2018-01-31T16:32:45.542Z,6.56
2018-01-31T16:35:14.379Z,6.53
2018-01-31T16:37:43.751Z,6.46
2018-01-31T16:40:15.906Z,6.50
2018-01-31T16:42:45.183Z,6.54
2018-01-31T16:45:14.026Z,6.45
2018-01-31T16:47:43.098Z,6.39
2018-01-31T16:50:11.785Z,6.39
2018-01-31T16:52:40.381Z,6.33
2018-01-31T16:55:10.186Z,6.30
2018-01-31T16:57:40.329Z,6.37
2018-01-31T17:00:08.904Z,6.41
2018-01-31T17:02:38.327Z,6.44
2018-01-31T17:05:06.954Z,6.50
2018-01-31T17:07:37.291Z,6.52
2018-01-31T17:10:07.881Z,6.51
2018-01-31T17:12:36.495Z,6.53
2018-01-31T17:15:05.542Z,6.50
2018-01-31T17:17:34.594Z,6.50
2018-01-31T17:20:03.601Z,6.47
2018-01-31T17:22:32.606Z,6.42
2018-01-31T17:25:02.398Z,6.39
2018-01-31T17:27:31.254Z,6.35
2018-01-31T17:30:00.149Z,6.30
2018-01-31T17:32:29.853Z,6.22
2018-01-31T17:34:58.834Z,6.19
2018-01-31T17:37:27.788Z,6.12
2018-01-31T17:39:58.497Z,6.11
2018-01-31T17:42:27.443Z,6.02
2018-01-31T17:44:56.465Z,5.96
2018-01-31T17:47:25.374Z,5.91
2018-01-31T17:49:54.337Z,5.80
2018-01-31T17:52:23.124Z,5.76
2018-01-31T17:57:22.678Z,5.69
2018-01-31T17:59:51.705Z,5.63
2018-01-31T18:02:21.502Z,5.55
2018-01-31T18:04:50.327Z,5.49
2018-01-31T18:07:19.631Z,5.46
2018-01-31T18:09:48.638Z,5.45
2018-01-31T18:12:17.487Z,5.48
2018-01-31T18:14:46.502Z,5.47
2018-01-31T18:17:20.537Z,5.38
2018-01-31T18:19:49.529Z,5.33
2018-01-31T18:22:18.401Z,5.28
2018-01-31T18:24:47.286Z,5.27
2018-01-31T18:27:16.201Z,5.28
2018-01-31T18:29:45.040Z,5.24
2018-01-31T18:32:16.642Z,5.22
2018-01-31T18:34:45.646Z,5.23
2018-01-31T18:37:14.656Z,5.18
2018-01-31T18:39:45.742Z,5.14
2018-01-31T18:42:14.655Z,5.18
2018-01-31T18:44:43.591Z,5.17
2018-01-31T18:47:15.191Z,5.11
2018-01-31T18:49:44.032Z,5.06
2018-01-31T18:52:13.002Z,5.00
2018-01-31T18:54:42.008Z,5.00
2018-01-31T18:57:10.941Z,5.02
2018-01-31T18:59:39.908Z,4.99
2018-01-31T19:02:10.171Z,4.94
2018-01-31T19:04:41.214Z,4.94
2018-01-31T19:07:10.079Z,4.97
2018-01-31T19:09:39.951Z,4.93
2018-01-31T19:12:09.112Z,4.76
2018-01-31T19:14:38.387Z,4.71
2018-01-31T19:17:09.550Z,4.72
2018-01-31T19:19:38.707Z,4.80
2018-01-31T19:22:07.671Z,4.83
2018-01-31T19:24:38.542Z,4.78
2018-01-31T19:27:07.523Z,4.84
2018-01-31T19:29:37.689Z,4.98
2018-01-31T19:32:06.933Z,5.00
2018-01-31T19:34:35.835Z,5.02
2018-01-31T19:37:04.717Z,5.00
2018-01-31T19:39:36.365Z,4.99
2018-01-31T19:42:05.341Z,5.01
2018-01-31T19:44:34.185Z,5.07
2018-01-31T19:47:03.161Z,5.12
2018-01-31T19:49:32.078Z,5.11
2018-01-31T19:52:00.981Z,5.14
2018-01-31T19:54:30.171Z,5.09
2018-01-31T19:56:59.091Z,5.31
2018-01-31T19:59:28.260Z,5.29
2018-01-31T20:01:57.161Z,5.31
2018-01-31T20:04:26.090Z,5.31
2018-01-31T20:06:55.185Z,5.31
2018-01-31T20:09:28.457Z,5.30
2018-01-31T20:11:57.356Z,5.31
2018-01-31T20:14:26.345Z,5.39
2018-01-31T20:16:56.173Z,5.52
2018-01-31T20:19:25.036Z,5.49
2018-01-31T20:21:54.002Z,5.50
2018-01-31T20:24:27.359Z,5.45
2018-01-31T20:26:56.233Z,5.38
2018-01-31T20:29:25.201Z,5.34
2018-01-31T20:31:54.114Z,5.29
2018-01-31T20:34:22.940Z,5.31
2018-01-31T20:36:51.819Z,5.27
2018-01-31T20:39:21.059Z,5.18
2018-01-31T20:41:49.932Z,5.05
2018-01-31T20:44:18.852Z,5.08
2018-01-31T20:46:47.932Z,5.11
2018-01-31T20:49:16.859Z,5.11
2018-01-31T20:51:45.692Z,5.09
2018-01-31T20:54:14.683Z,5.17
2018-01-31T20:56:43.624Z,5.14
2018-01-31T20:59:12.471Z,5.09
2018-01-31T21:01:43.872Z,5.03
2018-01-31T21:04:13.005Z,5.06
2018-01-31T21:06:42.478Z,5.18
2018-01-31T21:09:12.342Z,5.24
2018-01-31T21:11:42.112Z,5.30
2018-01-31T21:14:11.106Z,5.33
2018-01-31T21:16:40.912Z,5.35
2018-01-31T21:19:09.829Z,5.31
2018-01-31T21:21:38.744Z,5.28
2018-01-31T21:24:09.744Z,5.29
2018-01-31T21:26:38.667Z,5.19
2018-01-31T21:29:07.621Z,5.11
2018-01-31T21:31:37.726Z,5.08
2018-01-31T21:34:06.546Z,5.07
2018-01-31T21:36:35.516Z,5.04
2018-01-31T21:39:04.712Z,4.99
2018-01-31T21:41:34.691Z,5.00
2018-01-31T21:44:03.662Z,5.02
2018-01-31T21:46:32.570Z,4.95
2018-01-31T21:49:01.391Z,4.88
2018-01-31T21:51:30.254Z,4.96
2018-01-31T21:54:01.310Z,5.00
2018-01-31T21:56:30.175Z,4.92
2018-01-31T21:58:59.060Z,4.88
2018-01-31T22:01:29.053Z,4.88
2018-01-31T22:04:00.229Z,4.89
2018-01-31T22:06:29.086Z,4.89
2018-01-31T22:08:58.905Z,4.90
2018-01-31T22:11:27.970Z,4.88
2018-01-31T22:13:56.850Z,4.92
2018-01-31T22:16:26.609Z,4.96
2018-01-31T22:18:55.430Z,5.00
2018-01-31T22:21:24.362Z,5.02
2018-01-31T22:23:53.280Z,4.92
2018-01-31T22:26:22.189Z,4.86
2018-01-31T22:28:51.033Z,4.78
2018-01-31T22:31:21.076Z,4.69
2018-01-31T22:33:50.101Z,4.61
2018-01-31T22:36:19.065Z,4.65
2018-01-31T22:38:53.376Z,4.57
2018-01-31T22:41:23.601Z,4.52
2018-01-31T22:43:52.835Z,4.45
2018-01-31T22:46:25.380Z,4.42
2018-01-31T22:48:54.422Z,4.38
2018-01-31T22:51:23.786Z,4.30
2018-01-31T22:53:53.928Z,4.29
2018-01-31T22:56:24.683Z,4.30
2018-01-31T22:58:53.941Z,4.29
2018-01-31T23:01:24.079Z,4.28
2018-01-31T23:03:54.347Z,4.24
2018-01-31T23:06:25.316Z,4.27
2018-01-31T23:08:54.925Z,4.21
2018-01-31T23:11:39.075Z,4.28
2018-01-31T23:14:13.698Z,4.33
2018-01-31T23:16:43.615Z,4.35
2018-01-31T23:19:13.359Z,4.30
2018-01-31T23:21:45.734Z,4.31
2018-01-31T23:24:14.925Z,4.39
2018-01-31T23:26:44.811Z,4.34
2018-01-31T23:29:14.552Z,4.37
2018-01-31T23:31:47.303Z,4.34
2018-01-31T23:34:17.513Z,4.44
2018-01-31T23:36:46.555Z,4.42
2018-01-31T23:39:15.748Z,4.45
2018-01-31T23:41:44.743Z,4.34
2018-01-31T23:44:13.840Z,4.27
2018-01-31T23:46:43.564Z,4.22
2018-01-31T23:49:12.757Z,4.23
2018-01-31T23:51:43.389Z,4.23
2018-01-31T23:54:14.261Z,4.21
2018-01-31T23:56:43.388Z,4.25
2018-01-31T23:59:13.201Z,4.34
